Terminal Aerodrome Forecast
Issued by NWS

Home | Current Version | Previous Version | Text Only | Print | Product List | Glossary On
Versions: 1 2 3 4 5 6 7 8 9 10 11 12 13 14 15 16 17 18
000
FTUS43 KBIS 262000 AAA
TAFJMS
TAF AMD
KJMS 262023Z 2620/2718 34013KT P6SM SCT023
     FM270100 29007KT P6SM SCT025 SCT300
     FM270800 26005KT P6SM SCT018 BKN025=

USA.gov is the U.S. government's official web portal to all federal, state and local government web resources and services.